createdAt,value
2023-03-06T00:00:53.997Z,98380.71
2023-03-06T00:03:22.871Z,98377.81
2023-03-06T00:05:57.695Z,98377.30
2023-03-06T00:08:27.020Z,98377.11
2023-03-06T00:11:00.920Z,98378.80
2023-03-06T00:13:35.243Z,98374.85
2023-03-06T00:16:07.295Z,98372.08
2023-03-06T00:18:35.995Z,98373.23
2023-03-06T00:21:15.397Z,98373.23
2023-03-06T00:23:50.316Z,98374.26
2023-03-06T00:26:18.914Z,98377.02
2023-03-06T00:28:47.634Z,98380.66
2023-03-06T00:31:19.152Z,98379.61
2023-03-06T00:33:49.767Z,98384.05
2023-03-06T00:36:19.245Z,98385.70
2023-03-06T00:38:47.394Z,98387.88
2023-03-06T00:41:15.662Z,98388.89
2023-03-06T00:43:44.370Z,98392.84
2023-03-06T00:46:12.502Z,98393.87
2023-03-06T00:48:40.820Z,98397.30
2023-03-06T00:51:13.513Z,98399.59
2023-03-06T00:53:42.166Z,98399.11
2023-03-06T00:56:10.800Z,98399.34
2023-03-06T00:58:38.907Z,98399.75
2023-03-06T01:01:07.014Z,98401.71
2023-03-06T01:03:37.851Z,98402.16
2023-03-06T01:06:07.729Z,98400.38
2023-03-06T01:08:37.714Z,98395.98
2023-03-06T01:11:06.994Z,98396.20
2023-03-06T01:13:35.201Z,98396.92
2023-03-06T01:16:12.291Z,98396.44
2023-03-06T01:18:41.846Z,98393.56
2023-03-06T01:21:09.930Z,98387.40
2023-03-06T01:23:39.655Z,98383.64
2023-03-06T01:26:08.241Z,98380.91
2023-03-06T01:28:37.756Z,98381.96
2023-03-06T01:31:07.064Z,98382.46
2023-03-06T01:33:35.722Z,98373.70
2023-03-06T01:36:08.533Z,98374.74
2023-03-06T01:38:38.077Z,98372.52
2023-03-06T01:41:06.398Z,98366.85
2023-03-06T01:43:35.664Z,98361.20
2023-03-06T01:46:18.401Z,98359.65
2023-03-06T01:48:47.096Z,98358.27
2023-03-06T01:51:16.238Z,98358.26
2023-03-06T01:53:44.425Z,98354.15
2023-03-06T01:56:12.884Z,98358.29
2023-03-06T01:58:41.359Z,98356.95
2023-03-06T02:01:13.594Z,98357.13
2023-03-06T02:03:41.830Z,98356.80
2023-03-06T02:06:09.900Z,98354.57
2023-03-06T02:08:47.376Z,98354.05
2023-03-06T02:11:18.357Z,98355.75
2023-03-06T02:13:49.482Z,98355.92
2023-03-06T02:16:21.876Z,98354.71
2023-03-06T02:18:52.207Z,98352.31
2023-03-06T02:21:28.916Z,98354.52
2023-03-06T02:24:07.047Z,98353.31
2023-03-06T02:26:37.086Z,98349.71
2023-03-06T02:29:12.339Z,98350.88
2023-03-06T02:31:42.672Z,98343.34
2023-03-06T02:34:16.908Z,98344.34
2023-03-06T02:36:48.977Z,98338.16
2023-03-06T02:39:25.368Z,98337.79
2023-03-06T02:41:53.835Z,98340.52
2023-03-06T02:44:23.164Z,98341.35
2023-03-06T02:46:51.396Z,98340.31
2023-03-06T02:49:20.696Z,98341.33
2023-03-06T02:51:51.132Z,98345.77
2023-03-06T02:54:19.739Z,98344.02
2023-03-06T02:56:49.824Z,98341.27
2023-03-06T02:59:17.908Z,98339.54
2023-03-06T03:01:47.980Z,98339.01
2023-03-06T03:04:16.367Z,98340.55
2023-03-06T03:06:44.995Z,98339.86
2023-03-06T03:09:13.316Z,98339.16
2023-03-06T03:11:44.518Z,98339.34
2023-03-06T03:14:13.665Z,98333.98
2023-03-06T03:16:41.755Z,98334.85
2023-03-06T03:19:10.098Z,98333.30
2023-03-06T03:21:40.683Z,98332.09
2023-03-06T03:24:09.115Z,98334.98
2023-03-06T03:26:37.376Z,98334.15
2023-03-06T03:29:12.050Z,98334.31
2023-03-06T03:31:40.278Z,98334.66
2023-03-06T03:34:08.911Z,98337.56
2023-03-06T03:36:39.183Z,98336.02
2023-03-06T03:39:08.219Z,98336.89
2023-03-06T03:41:36.641Z,98340.67
2023-03-06T03:44:07.129Z,98345.48
2023-03-06T03:46:37.167Z,98340.34
2023-03-06T03:49:06.249Z,98344.13
2023-03-06T03:51:34.376Z,98342.59
2023-03-06T03:54:03.576Z,98340.35
2023-03-06T03:56:35.231Z,98340.16
2023-03-06T03:59:08.716Z,98344.63
2023-03-06T04:01:42.406Z,98347.19
2023-03-06T04:04:10.584Z,98346.49
2023-03-06T04:06:39.543Z,98345.45
2023-03-06T04:09:08.050Z,98350.11
2023-03-06T04:11:36.794Z,98347.19
2023-03-06T04:14:04.994Z,98352.16
2023-03-06T04:16:35.979Z,98351.96
2023-03-06T04:19:04.583Z,98352.13
2023-03-06T04:21:33.716Z,98356.74
2023-03-06T04:24:02.229Z,98356.23
2023-03-06T04:26:31.232Z,98357.55
2023-03-06T04:29:00.307Z,98357.91
2023-03-06T04:31:31.571Z,98358.26
2023-03-06T04:34:00.309Z,98361.86
2023-03-06T04:36:30.084Z,98363.77
2023-03-06T04:39:01.935Z,98362.21
2023-03-06T04:41:30.857Z,98365.83
2023-03-06T04:43:59.517Z,98366.84
2023-03-06T04:46:27.670Z,98366.48
2023-03-06T04:48:56.512Z,98368.73
2023-03-06T04:51:24.607Z,98371.13
2023-03-06T04:53:54.906Z,98374.38
2023-03-06T04:56:23.490Z,98371.12
2023-03-06T04:58:52.987Z,98373.34
2023-03-06T05:01:21.538Z,98376.77
2023-03-06T05:03:50.140Z,98381.39
2023-03-06T05:06:18.492Z,98379.99
2023-03-06T05:08:46.554Z,98385.27
2023-03-06T05:11:18.520Z,98385.59
2023-03-06T05:13:47.113Z,98389.17
2023-03-06T05:16:15.773Z,98391.73
2023-03-06T05:18:44.693Z,98395.13
2023-03-06T05:21:13.434Z,98392.19
2023-03-06T05:23:41.876Z,98394.92
2023-03-06T05:26:13.612Z,98398.84
2023-03-06T05:28:41.693Z,98400.02
2023-03-06T05:31:09.914Z,98404.98
2023-03-06T05:33:41.661Z,98405.98
2023-03-06T05:36:10.531Z,98404.94
2023-03-06T05:38:38.631Z,98408.67
2023-03-06T05:41:07.017Z,98410.14
2023-03-06T05:43:35.217Z,98414.54
2023-03-06T05:46:04.333Z,98416.70
2023-03-06T05:48:33.054Z,98415.98
2023-03-06T05:51:01.592Z,98416.64
2023-03-06T05:53:30.057Z,98415.56
2023-03-06T05:56:02.493Z,98417.60
2023-03-06T05:58:31.180Z,98411.21
2023-03-06T06:00:59.363Z,98415.48
2023-03-06T06:03:27.678Z,98415.08
2023-03-06T06:05:56.003Z,98416.89
2023-03-06T06:08:24.264Z,98420.89
2023-03-06T06:10:53.555Z,98423.41
2023-03-06T06:13:24.553Z,98431.30
2023-03-06T06:15:57.725Z,98437.02
2023-03-06T06:18:27.474Z,98435.92
2023-03-06T06:20:59.184Z,98440.69
2023-03-06T06:23:27.348Z,98443.08
2023-03-06T06:25:55.660Z,98446.30
2023-03-06T06:28:24.297Z,98450.02
2023-03-06T06:30:52.593Z,98455.65
2023-03-06T06:33:21.995Z,98459.57
2023-03-06T06:35:50.862Z,98463.48
2023-03-06T06:38:23.168Z,98467.64
2023-03-06T06:41:26.850Z,98465.31
2023-03-06T06:43:42.635Z,98469.00
2023-03-06T06:46:39.919Z,98474.41
2023-03-06T06:49:00.232Z,98476.63
2023-03-06T06:51:31.067Z,98477.81
2023-03-06T06:53:59.864Z,98481.05
2023-03-06T06:56:28.007Z,98481.17
2023-03-06T06:59:06.881Z,98484.88
2023-03-06T07:01:43.291Z,98487.48
2023-03-06T07:04:13.754Z,98491.65
2023-03-06T07:06:42.766Z,98495.16
2023-03-06T07:09:12.304Z,98495.08
2023-03-06T07:11:40.984Z,98496.36
2023-03-06T07:14:09.156Z,98493.17
2023-03-06T07:16:37.607Z,98490.80
2023-03-06T07:19:10.057Z,98485.34
2023-03-06T07:21:39.668Z,98488.16
2023-03-06T07:24:09.143Z,98493.67
2023-03-06T07:26:40.802Z,98496.63
2023-03-06T07:29:16.161Z,98504.16
2023-03-06T07:31:48.899Z,98509.30
2023-03-06T07:34:18.465Z,98505.25
2023-03-06T07:36:46.752Z,98512.64
2023-03-06T07:39:16.451Z,98519.66
2023-03-06T07:41:44.697Z,98519.92
2023-03-06T07:44:16.073Z,98523.94
2023-03-06T07:46:45.248Z,98524.38
2023-03-06T07:49:13.607Z,98526.05
2023-03-06T07:51:43.653Z,98528.44
2023-03-06T07:54:11.950Z,98529.09
2023-03-06T07:56:39.958Z,98531.27
2023-03-06T07:59:12.957Z,98533.24
2023-03-06T08:01:42.999Z,98538.88
2023-03-06T08:04:11.833Z,98536.58
2023-03-06T08:06:41.952Z,98541.27
2023-03-06T08:09:13.891Z,98543.45
2023-03-06T08:11:45.428Z,98546.74
2023-03-06T08:14:20.734Z,98549.67
2023-03-06T08:16:57.731Z,98542.05
2023-03-06T08:19:25.867Z,98549.10
2023-03-06T08:22:00.370Z,98550.12
2023-03-06T08:24:30.249Z,98552.27
2023-03-06T08:27:00.682Z,98561.55
2023-03-06T08:29:31.479Z,98564.98
2023-03-06T08:32:04.822Z,98566.44
2023-03-06T08:34:34.952Z,98568.81
2023-03-06T08:37:03.668Z,98568.89
2023-03-06T08:39:34.527Z,98568.33
2023-03-06T08:42:06.646Z,98569.64
2023-03-06T08:44:35.688Z,98570.96
2023-03-06T08:47:06.510Z,98571.20
2023-03-06T08:49:40.878Z,98571.65
2023-03-06T08:52:16.156Z,98576.10
2023-03-06T08:57:31.174Z,98586.58
2023-03-06T09:00:09.161Z,98586.25
2023-03-06T09:02:37.791Z,98588.98
2023-03-06T09:05:10.652Z,98593.08
2023-03-06T09:07:40.464Z,98596.27
2023-03-06T09:10:17.592Z,98599.65
2023-03-06T09:12:51.379Z,98601.91
2023-03-06T09:15:23.615Z,98602.83
2023-03-06T09:17:54.759Z,98607.26
2023-03-06T09:20:31.426Z,98602.40
2023-03-06T09:22:59.887Z,98600.73
2023-03-06T09:25:31.051Z,98603.04
2023-03-06T09:28:11.378Z,98603.90
2023-03-06T09:30:45.022Z,98611.05
2023-03-06T09:33:15.036Z,98613.30
2023-03-06T09:35:51.458Z,98613.83
2023-03-06T09:38:20.490Z,98609.70
2023-03-06T09:43:52.010Z,98609.10
2023-03-06T09:46:43.515Z,98609.59
2023-03-06T09:49:45.212Z,98608.59
2023-03-06T09:52:26.526Z,98607.40
2023-03-06T09:55:20.011Z,98604.91
2023-03-06T09:57:55.630Z,98606.24
2023-03-06T10:00:35.391Z,98605.08
2023-03-06T10:03:14.420Z,98611.60
2023-03-06T10:06:23.724Z,98604.82
2023-03-06T10:09:13.185Z,98608.53
2023-03-06T10:12:01.357Z,98611.77
2023-03-06T10:14:42.425Z,98606.95
2023-03-06T10:17:35.173Z,98607.35
2023-03-06T10:20:27.443Z,98605.27
2023-03-06T10:23:07.661Z,98604.45
2023-03-06T10:25:48.415Z,98607.45
2023-03-06T10:28:24.444Z,98606.76
2023-03-06T10:31:14.225Z,98601.85
2023-03-06T10:33:51.901Z,98605.25
2023-03-06T10:36:22.325Z,98602.11
2023-03-06T10:38:53.660Z,98601.48
2023-03-06T10:41:25.978Z,98598.79
2023-03-06T10:44:00.766Z,98601.27
2023-03-06T10:46:36.869Z,98599.58
2023-03-06T10:49:10.294Z,98597.91
2023-03-06T10:51:38.309Z,98596.98
2023-03-06T10:54:13.579Z,98597.02
2023-03-06T10:56:46.266Z,98602.45
2023-03-06T10:59:18.908Z,98602.20
2023-03-06T11:01:54.528Z,98602.16
2023-03-06T11:04:34.050Z,98600.48
2023-03-06T11:07:28.426Z,98595.15
2023-03-06T11:09:57.457Z,98594.98
2023-03-06T11:12:36.683Z,98594.73
2023-03-06T11:15:07.684Z,98596.17
2023-03-06T11:18:04.954Z,98593.74
2023-03-06T11:20:55.250Z,98599.33
2023-03-06T11:23:46.675Z,98594.56
2023-03-06T11:26:17.964Z,98597.44
2023-03-06T11:28:48.573Z,98597.96
2023-03-06T11:31:18.887Z,98599.90
2023-03-06T11:33:52.511Z,98596.41
2023-03-06T11:36:36.180Z,98600.41
2023-03-06T11:39:16.504Z,98603.73
2023-03-06T11:42:05.947Z,98601.33
2023-03-06T11:45:13.639Z,98604.39
2023-03-06T11:47:48.628Z,98600.84
2023-03-06T11:50:18.602Z,98599.14
2023-03-06T11:53:00.022Z,98601.20
2023-03-06T11:56:00.595Z,98602.58
2023-03-06T11:58:47.518Z,98602.39
2023-03-06T12:01:47.895Z,98604.79
2023-03-06T12:04:19.237Z,98610.06
2023-03-06T12:07:15.670Z,98608.81
2023-03-06T12:10:51.487Z,98610.48
2023-03-06T12:14:00.269Z,98607.52
2023-03-06T12:17:02.303Z,98608.20
2023-03-06T12:20:07.970Z,98613.33
2023-03-06T12:22:57.927Z,98610.69
2023-03-06T12:25:57.327Z,98610.00
2023-03-06T12:28:47.329Z,98615.48
2023-03-06T12:31:30.864Z,98619.81
2023-03-06T12:34:57.117Z,98622.34
2023-03-06T12:37:36.137Z,98621.45
2023-03-06T12:40:11.048Z,98624.77
2023-03-06T12:43:02.013Z,98624.63
2023-03-06T12:45:33.419Z,98622.27
2023-03-06T12:48:02.178Z,98623.13
2023-03-06T12:50:37.140Z,98621.90
2023-03-06T12:53:06.141Z,98621.52
2023-03-06T12:55:45.698Z,98615.76
2023-03-06T12:58:38.878Z,98616.55
2023-03-06T13:01:43.667Z,98616.64
2023-03-06T13:04:18.641Z,98615.22
2023-03-06T13:06:59.449Z,98609.15
2023-03-06T13:10:02.466Z,98606.07
2023-03-06T13:12:45.596Z,98601.59
2023-03-06T13:15:33.631Z,98605.70
2023-03-06T13:18:33.568Z,98608.39
2023-03-06T13:21:09.237Z,98604.18
2023-03-06T13:23:53.537Z,98606.92
2023-03-06T13:26:26.128Z,98601.02
2023-03-06T13:31:41.556Z,98611.82
2023-03-06T13:34:34.149Z,98612.96
2023-03-06T13:37:23.349Z,98614.45
2023-03-06T13:39:57.764Z,98614.52
2023-03-06T13:42:34.269Z,98614.04
2023-03-06T13:45:30.235Z,98615.10
2023-03-06T13:48:24.564Z,98610.11
2023-03-06T13:50:50.793Z,98614.06
2023-03-06T13:53:40.895Z,98613.00
2023-03-06T13:56:34.035Z,98613.50
2023-03-06T13:59:25.881Z,98615.02
2023-03-06T14:01:54.407Z,98613.66
2023-03-06T14:04:35.118Z,98614.58
2023-03-06T14:07:20.517Z,98613.38
2023-03-06T14:09:58.487Z,98615.27
2023-03-06T14:12:36.568Z,98613.70
2023-03-06T14:15:32.761Z,98611.77
2023-03-06T14:18:21.323Z,98616.34
2023-03-06T14:23:45.185Z,98617.77
2023-03-06T14:26:19.206Z,98616.35
2023-03-06T14:28:59.248Z,98620.80
2023-03-06T14:31:32.064Z,98620.05
2023-03-06T14:34:01.194Z,98620.06
2023-03-06T14:36:49.152Z,98621.27
2023-03-06T14:39:29.902Z,98623.17
2023-03-06T14:42:16.693Z,98619.58
2023-03-06T14:44:45.670Z,98623.76
2023-03-06T14:47:33.075Z,98627.23
2023-03-06T14:50:27.839Z,98627.14
2023-03-06T14:53:09.166Z,98626.52
2023-03-06T14:55:50.075Z,98631.56
2023-03-06T14:58:22.364Z,98633.48
2023-03-06T15:00:52.047Z,98628.56
2023-03-06T15:03:57.576Z,98629.66
2023-03-06T15:06:35.019Z,98631.41
2023-03-06T15:09:15.557Z,98630.57
2023-03-06T15:12:04.141Z,98632.68
2023-03-06T15:14:35.570Z,98631.53
2023-03-06T15:17:15.396Z,98630.87
2023-03-06T15:19:45.944Z,98634.53
2023-03-06T15:22:38.187Z,98633.70
2023-03-06T15:25:20.901Z,98633.73
2023-03-06T15:28:04.075Z,98638.61
2023-03-06T15:30:35.855Z,98644.67
2023-03-06T15:33:20.328Z,98646.74
2023-03-06T15:36:02.681Z,98651.74
2023-03-06T15:38:40.568Z,98654.53
2023-03-06T15:41:22.686Z,98656.92
2023-03-06T15:43:50.926Z,98661.70
2023-03-06T15:46:19.238Z,98664.06
2023-03-06T15:49:04.308Z,98662.66
2023-03-06T15:51:33.277Z,98663.15
2023-03-06T15:54:11.998Z,98663.15
2023-03-06T15:56:42.323Z,98665.94
2023-03-06T15:59:23.303Z,98669.11
2023-03-06T16:01:54.871Z,98670.75
2023-03-06T16:04:23.640Z,98670.33
2023-03-06T16:06:52.406Z,98669.73
2023-03-06T16:09:20.456Z,98673.26
2023-03-06T16:11:48.842Z,98673.52
2023-03-06T16:14:21.316Z,98681.67
2023-03-06T16:16:51.284Z,98685.90
2023-03-06T16:19:28.723Z,98687.34
2023-03-06T16:21:57.217Z,98684.66
2023-03-06T16:24:30.534Z,98689.70
2023-03-06T16:27:01.632Z,98687.88
2023-03-06T16:29:36.210Z,98686.51
2023-03-06T16:32:05.555Z,98689.98
2023-03-06T16:34:34.337Z,98688.46
2023-03-06T16:37:03.774Z,98691.25
2023-03-06T16:39:32.939Z,98689.02
2023-03-06T16:42:04.759Z,98689.21
2023-03-06T16:44:34.595Z,98691.48
2023-03-06T16:47:02.738Z,98689.61
2023-03-06T16:49:31.562Z,98688.60
2023-03-06T16:51:59.673Z,98686.74
2023-03-06T16:54:27.773Z,98686.76
2023-03-06T16:56:55.809Z,98686.10
2023-03-06T16:59:25.075Z,98686.13
2023-03-06T17:01:53.785Z,98689.41
2023-03-06T17:04:22.061Z,98684.61
2023-03-06T17:06:55.162Z,98682.91
2023-03-06T17:09:23.451Z,98688.29
2023-03-06T17:11:51.634Z,98687.59
2023-03-06T17:14:20.611Z,98688.30
2023-03-06T17:16:48.678Z,98687.11
2023-03-06T17:19:18.587Z,98688.52
2023-03-06T17:21:46.864Z,98689.40
2023-03-06T17:24:15.679Z,98691.31
2023-03-06T17:26:47.076Z,98694.41
2023-03-06T17:29:17.257Z,98694.75
2023-03-06T17:31:46.566Z,98696.14
2023-03-06T17:34:14.655Z,98694.61
2023-03-06T17:36:44.136Z,98696.52
2023-03-06T17:39:13.058Z,98696.72
2023-03-06T17:41:41.978Z,98696.56
2023-03-06T17:44:16.261Z,98697.28
2023-03-06T17:46:44.787Z,98695.91
2023-03-06T17:49:14.526Z,98695.94
2023-03-06T17:51:43.805Z,98694.06
2023-03-06T17:54:12.156Z,98690.67
2023-03-06T17:56:40.329Z,98694.13
2023-03-06T17:59:08.813Z,98694.33
2023-03-06T18:01:37.286Z,98691.57
2023-03-06T18:04:08.836Z,98694.51
2023-03-06T18:06:37.439Z,98694.32
2023-03-06T18:09:07.866Z,98696.38
2023-03-06T18:11:37.451Z,98696.56
2023-03-06T18:14:05.821Z,98698.30
2023-03-06T18:16:53.435Z,98698.84
2023-03-06T18:19:21.874Z,98698.83
2023-03-06T18:21:50.103Z,98697.83
2023-03-06T18:24:18.605Z,98700.23
2023-03-06T18:26:47.698Z,98700.09
2023-03-06T18:29:18.141Z,98707.31
2023-03-06T18:31:51.581Z,98707.33
2023-03-06T18:34:19.883Z,98708.20
2023-03-06T18:36:51.713Z,98709.90
2023-03-06T18:39:21.565Z,98709.39
2023-03-06T18:41:53.810Z,98706.98
2023-03-06T18:44:22.175Z,98707.86
2023-03-06T18:46:50.216Z,98709.61
2023-03-06T18:49:19.229Z,98710.48
2023-03-06T18:51:51.420Z,98712.02
2023-03-06T18:54:19.897Z,98710.99
2023-03-06T18:56:48.297Z,98714.95
2023-03-06T18:59:37.934Z,98716.16
2023-03-06T19:02:06.117Z,98717.36
2023-03-06T19:04:34.351Z,98717.88
2023-03-06T19:07:06.106Z,98717.73
2023-03-06T19:09:34.267Z,98718.96
2023-03-06T19:12:03.656Z,98721.05
2023-03-06T19:14:32.549Z,98719.50
2023-03-06T19:17:02.081Z,98722.44
2023-03-06T19:19:33.606Z,98722.44
2023-03-06T19:22:04.916Z,98725.52
2023-03-06T19:24:34.342Z,98725.18
2023-03-06T19:29:44.864Z,98727.27
2023-03-06T19:32:16.376Z,98726.25
2023-03-06T19:34:48.866Z,98721.27
2023-03-06T19:37:18.826Z,98716.65
2023-03-06T19:39:46.998Z,98712.88
2023-03-06T19:42:17.923Z,98711.66
2023-03-06T19:44:46.025Z,98712.70
2023-03-06T19:47:14.268Z,98715.45
2023-03-06T19:49:42.874Z,98712.90
2023-03-06T19:52:11.203Z,98713.26
2023-03-06T19:54:39.385Z,98712.41
2023-03-06T19:57:07.732Z,98707.42
2023-03-06T19:59:38.498Z,98708.96
2023-03-06T20:02:07.055Z,98705.86
2023-03-06T20:04:35.410Z,98703.47
2023-03-06T20:07:05.126Z,98703.13
2023-03-06T20:09:35.764Z,98707.92
2023-03-06T20:12:08.426Z,98706.04
2023-03-06T20:14:37.457Z,98702.95
2023-03-06T20:17:05.568Z,98697.97
2023-03-06T20:19:35.189Z,98695.70
2023-03-06T20:22:03.547Z,98698.79
2023-03-06T20:24:32.019Z,98702.90
2023-03-06T20:27:02.853Z,98697.24
2023-03-06T20:29:31.123Z,98692.25
2023-03-06T20:32:02.595Z,98692.23
2023-03-06T20:34:32.200Z,98688.98
2023-03-06T20:37:00.506Z,98683.98
2023-03-06T20:39:30.112Z,98686.59
2023-03-06T20:42:00.089Z,98681.11
2023-03-06T20:44:29.426Z,98678.04
2023-03-06T20:47:00.979Z,98673.56
2023-03-06T20:49:33.728Z,98671.15
2023-03-06T20:52:19.110Z,98671.45
2023-03-06T20:54:50.930Z,98673.66
2023-03-06T20:57:19.082Z,98671.08
2023-03-06T20:59:47.069Z,98671.07
2023-03-06T21:02:15.825Z,98674.52
2023-03-06T21:04:44.473Z,98674.36
2023-03-06T21:07:17.039Z,98675.23
2023-03-06T21:09:45.606Z,98668.38
2023-03-06T21:12:17.932Z,98664.98
2023-03-06T21:14:47.599Z,98665.17
2023-03-06T21:17:15.932Z,98658.15
2023-03-06T21:19:46.573Z,98658.66
2023-03-06T21:22:14.801Z,98658.00
2023-03-06T21:24:43.987Z,98649.79
2023-03-06T21:27:12.312Z,98649.96
2023-03-06T21:29:40.522Z,98644.13
2023-03-06T21:32:09.253Z,98643.27
2023-03-06T21:34:37.876Z,98643.96
2023-03-06T21:37:06.423Z,98641.56
2023-03-06T21:39:37.464Z,98636.58
2023-03-06T21:42:05.819Z,98640.17
2023-03-06T21:44:37.644Z,98635.01
2023-03-06T21:47:05.990Z,98634.16
2023-03-06T21:49:35.848Z,98634.33
2023-03-06T21:52:05.066Z,98633.98
2023-03-06T21:54:33.164Z,98632.92
2023-03-06T21:57:01.683Z,98627.09
2023-03-06T21:59:30.253Z,98623.66
2023-03-06T22:01:59.618Z,98622.31
2023-03-06T22:04:27.977Z,98626.83
2023-03-06T22:06:59.378Z,98621.18
2023-03-06T22:09:29.417Z,98619.15
2023-03-06T22:11:58.353Z,98619.89
2023-03-06T22:14:26.605Z,98621.30
2023-03-06T22:16:56.800Z,98619.45
2023-03-06T22:19:25.966Z,98621.01
2023-03-06T22:21:54.101Z,98618.11
2023-03-06T22:24:22.129Z,98622.05
2023-03-06T22:26:50.198Z,98621.20
2023-03-06T22:29:18.648Z,98625.67
2023-03-06T22:31:47.115Z,98624.45
2023-03-06T22:34:15.550Z,98628.05
2023-03-06T22:37:03.465Z,98624.62
2023-03-06T22:39:31.928Z,98627.34
2023-03-06T22:41:59.999Z,98621.67
2023-03-06T22:44:28.213Z,98620.79
2023-03-06T22:46:56.249Z,98618.73
2023-03-06T22:49:24.601Z,98612.87
2023-03-06T22:51:52.632Z,98614.59
2023-03-06T22:54:20.821Z,98609.59
2023-03-06T22:56:48.985Z,98607.52
2023-03-06T22:59:17.280Z,98602.19
2023-03-06T23:01:49.091Z,98592.95
2023-03-06T23:04:17.484Z,98592.95
2023-03-06T23:06:49.469Z,98592.95
2023-03-06T23:09:20.786Z,98591.95
2023-03-06T23:12:09.182Z,98593.85
2023-03-06T23:14:57.007Z,98591.10
2023-03-06T23:17:44.981Z,98588.17
2023-03-06T23:20:33.798Z,98586.61
2023-03-06T23:23:24.137Z,98582.67
2023-03-06T23:25:52.434Z,98581.80
2023-03-06T23:28:20.600Z,98580.59
2023-03-06T23:30:49.023Z,98578.88
2023-03-06T23:33:17.471Z,98573.55
2023-03-06T23:35:47.961Z,98570.81
2023-03-06T23:38:16.770Z,98570.46
2023-03-06T23:40:45.051Z,98570.64
2023-03-06T23:43:13.071Z,98566.52
2023-03-06T23:45:41.311Z,98563.93
2023-03-06T23:48:10.504Z,98562.40
2023-03-06T23:50:40.321Z,98561.04
2023-03-06T23:53:09.186Z,98557.11
2023-03-06T23:55:45.045Z,98553.35
2023-03-06T23:58:19.268Z,98545.14
